Gem, West Virginia
Current Conditions -  °F | °C
As of 4:15 PM on Saturday 22 Nov 2014 (Local Time) from KW22 Reporting Station
Broken Clouds Broken Clouds  
Wind Chill: 54°   Ceiling: 10000
Heat Index: 54°   Visibility: 10mi
Dew Point: 28°   Wind: 0mph
Humidity: 38%   Direction: NA
Pressure: 30.19"   Gusts: NA
Location:  38.8444°N, 80.6476°W
Report Text: KW22 222115Z AUTO 00000KT 10SM SCT080 BKN100 12/M02 A3019 RMK AO2
Loading
Personal Weather Stations






























Interactive Weather Map New forecast layout! Learn more

10-Day Weather Forecast

Advertisements
Track Severe Weather on mobile